createdAt,value
2022-10-06T00:01:05.580Z,10.43
2022-10-06T00:03:45.603Z,10.42
2022-10-06T00:06:15.826Z,10.42
2022-10-06T00:08:44.916Z,10.37
2022-10-06T00:11:13.888Z,10.22
2022-10-06T00:13:42.509Z,10.26
2022-10-06T00:16:12.827Z,10.21
2022-10-06T00:18:40.691Z,10.29
2022-10-06T00:21:08.313Z,10.35
2022-10-06T00:23:36.562Z,10.24
2022-10-06T00:26:04.392Z,10.17
2022-10-06T00:28:32.830Z,10.16
2022-10-06T00:31:02.985Z,10.22
2022-10-06T00:33:30.867Z,10.20
2022-10-06T00:36:00.864Z,10.06
2022-10-06T00:38:29.922Z,10.06
2022-10-06T00:40:58.089Z,9.98
2022-10-06T00:43:49.875Z,10.02
2022-10-06T00:46:24.360Z,10.04
2022-10-06T00:49:00.448Z,10.12
2022-10-06T00:51:29.770Z,9.98
2022-10-06T00:53:58.088Z,10.02
2022-10-06T00:56:26.737Z,10.03
2022-10-06T00:58:55.029Z,10.01
2022-10-06T01:01:23.083Z,10.02
2022-10-06T01:04:00.100Z,10.02
2022-10-06T01:06:28.766Z,9.99
2022-10-06T01:08:56.618Z,9.97
2022-10-06T01:11:24.470Z,10.03
2022-10-06T01:13:52.458Z,10.00
2022-10-06T01:16:25.141Z,10.05
2022-10-06T01:18:55.614Z,10.05
2022-10-06T01:21:38.684Z,10.07
2022-10-06T01:24:10.253Z,10.07
2022-10-06T01:26:42.486Z,10.03
2022-10-06T01:29:10.949Z,9.93
2022-10-06T01:31:39.995Z,9.85
2022-10-06T01:34:07.839Z,9.85
2022-10-06T01:36:35.776Z,9.84
2022-10-06T01:39:03.603Z,9.80
2022-10-06T01:41:33.359Z,9.80
2022-10-06T01:44:02.661Z,9.86
2022-10-06T01:46:31.297Z,9.78
2022-10-06T01:49:00.032Z,9.80
2022-10-06T01:51:27.970Z,9.86
2022-10-06T01:53:55.735Z,9.78
2022-10-06T01:56:23.944Z,9.78
2022-10-06T01:58:51.984Z,9.74
2022-10-06T02:01:19.818Z,9.74
2022-10-06T02:03:47.509Z,9.74
2022-10-06T02:06:15.578Z,9.82
2022-10-06T02:08:45.041Z,9.81
2022-10-06T02:11:13.309Z,9.66
2022-10-06T02:13:45.115Z,9.68
2022-10-06T02:16:14.183Z,9.73
2022-10-06T02:18:43.549Z,9.82
2022-10-06T02:21:22.075Z,9.75
2022-10-06T02:23:50.743Z,9.75
2022-10-06T02:26:19.151Z,9.65
2022-10-06T02:28:50.061Z,9.79
2022-10-06T02:31:22.216Z,9.76
2022-10-06T02:33:50.034Z,9.68
2022-10-06T02:36:19.330Z,9.60
2022-10-06T02:38:47.287Z,9.59
2022-10-06T02:41:15.088Z,9.61
2022-10-06T02:43:43.032Z,9.59
2022-10-06T02:46:14.689Z,9.61
2022-10-06T02:48:48.481Z,9.76
2022-10-06T02:51:19.328Z,9.70
2022-10-06T02:53:48.600Z,9.60
2022-10-06T02:56:24.158Z,9.64
2022-10-06T02:58:53.683Z,9.59
2022-10-06T03:01:30.813Z,9.63
2022-10-06T03:04:01.959Z,9.64
2022-10-06T03:06:31.679Z,9.73
2022-10-06T03:09:13.783Z,9.68
2022-10-06T03:11:44.303Z,9.68
2022-10-06T03:14:25.885Z,9.52
2022-10-06T03:16:55.050Z,9.58
2022-10-06T03:19:28.416Z,9.56
2022-10-06T03:21:56.647Z,9.53
2022-10-06T03:24:33.068Z,9.52
2022-10-06T03:27:00.972Z,9.64
2022-10-06T03:29:31.107Z,9.57
2022-10-06T03:31:59.722Z,9.58
2022-10-06T03:34:27.581Z,9.58
2022-10-06T03:36:57.173Z,9.67
2022-10-06T03:39:27.301Z,9.56
2022-10-06T03:41:55.174Z,9.59
2022-10-06T03:44:22.995Z,9.74
2022-10-06T03:46:51.336Z,9.74
2022-10-06T03:49:20.169Z,9.71
2022-10-06T03:51:48.445Z,9.60
2022-10-06T03:54:21.549Z,9.72
2022-10-06T03:56:51.461Z,9.60
2022-10-06T03:59:20.489Z,9.60
2022-10-06T04:01:49.701Z,9.66
2022-10-06T04:04:25.427Z,9.56
2022-10-06T04:06:59.625Z,9.56
2022-10-06T04:09:27.576Z,9.70
2022-10-06T04:11:55.446Z,9.62
2022-10-06T04:14:23.410Z,9.61
2022-10-06T04:16:52.053Z,9.60
2022-10-06T04:19:25.413Z,9.64
2022-10-06T04:21:56.132Z,9.65
2022-10-06T04:24:25.993Z,9.51
2022-10-06T04:27:14.019Z,9.52
2022-10-06T04:29:42.829Z,9.45
2022-10-06T04:32:11.462Z,9.59
2022-10-06T04:34:39.441Z,9.52
2022-10-06T04:37:07.500Z,9.41
2022-10-06T04:39:35.471Z,9.42
2022-10-06T04:42:03.338Z,9.41
2022-10-06T04:44:32.328Z,9.40
2022-10-06T04:47:02.773Z,9.39
2022-10-06T04:49:31.748Z,9.29
2022-10-06T04:51:59.918Z,9.34
2022-10-06T04:54:33.906Z,9.36
2022-10-06T04:57:04.008Z,9.43
2022-10-06T04:59:51.138Z,9.48
2022-10-06T05:02:20.701Z,9.52
2022-10-06T05:04:51.934Z,9.54
2022-10-06T05:07:21.813Z,9.53
2022-10-06T05:09:49.612Z,9.62
2022-10-06T05:12:19.295Z,9.65
2022-10-06T05:14:48.025Z,9.77
2022-10-06T05:17:16.644Z,9.82
2022-10-06T05:19:45.444Z,9.87
2022-10-06T05:22:13.321Z,10.04
2022-10-06T05:24:41.545Z,10.04
2022-10-06T05:27:09.315Z,10.15
2022-10-06T05:29:37.015Z,10.19
2022-10-06T05:32:07.159Z,10.21
2022-10-06T05:34:36.545Z,10.18
2022-10-06T05:37:04.412Z,10.28
2022-10-06T05:39:32.653Z,10.60
2022-10-06T05:42:01.382Z,10.68
2022-10-06T05:44:30.040Z,10.63
2022-10-06T05:47:01.469Z,10.72
2022-10-06T05:49:29.907Z,10.72
2022-10-06T05:52:02.161Z,10.78
2022-10-06T05:54:32.998Z,10.86
2022-10-06T05:57:01.380Z,10.92
2022-10-06T05:59:31.603Z,10.94
2022-10-06T06:02:00.913Z,11.14
2022-10-06T06:04:42.579Z,11.37
2022-10-06T06:07:10.954Z,12.44
2022-10-06T06:09:40.724Z,13.46
2022-10-06T06:12:08.783Z,14.35
2022-10-06T06:15:15.230Z,16.11
2022-10-06T06:17:48.817Z,16.30
2022-10-06T06:20:16.636Z,15.94
2022-10-06T06:22:44.482Z,15.72
2022-10-06T06:25:13.056Z,16.22
2022-10-06T06:27:42.496Z,16.58
2022-10-06T06:30:11.274Z,17.89
2022-10-06T06:32:41.763Z,19.42
2022-10-06T06:35:10.443Z,19.26
2022-10-06T06:37:38.717Z,18.56
2022-10-06T06:40:07.295Z,17.84
2022-10-06T06:42:38.507Z,17.81
2022-10-06T06:45:25.093Z,17.32
2022-10-06T06:48:16.983Z,16.77
2022-10-06T06:50:59.124Z,16.84
2022-10-06T06:53:29.999Z,16.84
2022-10-06T06:56:02.516Z,16.94
2022-10-06T06:58:33.028Z,17.19
2022-10-06T07:01:08.736Z,17.11
2022-10-06T07:03:56.598Z,17.13
2022-10-06T07:06:28.168Z,16.94
2022-10-06T07:08:59.658Z,16.81
2022-10-06T07:11:30.901Z,16.77
2022-10-06T07:14:05.399Z,16.68
2022-10-06T07:16:52.772Z,16.61
2022-10-06T07:19:57.641Z,16.53
2022-10-06T07:22:46.738Z,16.55
2022-10-06T07:25:26.895Z,16.57
2022-10-06T07:28:07.738Z,16.60
2022-10-06T07:30:40.886Z,16.71
2022-10-06T07:33:18.932Z,16.80
2022-10-06T07:35:48.451Z,16.89
2022-10-06T07:38:18.715Z,16.92
2022-10-06T07:43:49.955Z,16.98
2022-10-06T07:46:19.494Z,17.19
2022-10-06T07:49:08.435Z,17.28
2022-10-06T07:51:36.895Z,17.37
2022-10-06T07:54:04.776Z,17.46
2022-10-06T07:56:53.704Z,17.38
2022-10-06T07:59:21.935Z,17.25
2022-10-06T08:01:51.351Z,17.11
2022-10-06T08:04:19.478Z,17.01
2022-10-06T08:06:49.475Z,17.15
2022-10-06T08:09:17.191Z,17.01
2022-10-06T08:11:47.330Z,16.97
2022-10-06T08:14:15.206Z,17.01
2022-10-06T08:16:42.980Z,17.16
2022-10-06T08:19:11.796Z,17.23
2022-10-06T08:21:39.905Z,17.34
2022-10-06T08:24:07.753Z,17.47
2022-10-06T08:26:35.977Z,17.63
2022-10-06T08:29:04.838Z,17.80
2022-10-06T08:31:33.287Z,17.95
2022-10-06T08:34:01.635Z,18.14
2022-10-06T08:36:32.302Z,18.35
2022-10-06T08:39:01.176Z,19.18
2022-10-06T08:41:32.968Z,21.29
2022-10-06T08:44:32.667Z,23.96
2022-10-06T08:47:13.749Z,25.64
2022-10-06T08:49:44.580Z,27.12
2022-10-06T08:52:18.130Z,27.54
2022-10-06T08:55:25.612Z,28.59
2022-10-06T08:58:19.916Z,30.05
2022-10-06T09:00:47.758Z,29.81
2022-10-06T09:03:27.620Z,29.79
2022-10-06T09:06:18.268Z,29.83
2022-10-06T09:08:53.711Z,30.06
2022-10-06T09:11:31.821Z,29.48
2022-10-06T09:14:34.802Z,29.94
2022-10-06T09:17:10.719Z,30.48
2022-10-06T09:19:48.375Z,29.32
2022-10-06T09:22:21.652Z,28.59
2022-10-06T09:24:57.070Z,27.11
2022-10-06T09:27:33.240Z,26.72
2022-10-06T09:30:06.295Z,25.98
2022-10-06T09:32:36.227Z,24.88
2022-10-06T09:35:18.889Z,24.25
2022-10-06T09:37:58.441Z,23.70
2022-10-06T09:40:38.216Z,23.08
2022-10-06T09:43:23.078Z,23.21
2022-10-06T09:45:51.640Z,23.03
2022-10-06T09:48:24.978Z,23.03
2022-10-06T09:51:23.750Z,23.33
2022-10-06T09:54:20.820Z,23.73
2022-10-06T09:56:49.406Z,24.21
2022-10-06T09:59:22.480Z,25.47
2022-10-06T10:01:58.122Z,26.25
2022-10-06T10:04:31.498Z,25.82
2022-10-06T10:07:24.527Z,26.28
2022-10-06T10:10:31.376Z,25.89
2022-10-06T10:13:00.356Z,25.23
2022-10-06T10:15:56.995Z,24.44
2022-10-06T10:18:28.832Z,24.23
2022-10-06T10:20:58.443Z,24.07
2022-10-06T10:23:33.422Z,23.82
2022-10-06T10:26:27.079Z,23.72
2022-10-06T10:29:16.520Z,23.46
2022-10-06T10:32:09.846Z,23.52
2022-10-06T10:34:50.249Z,23.34
2022-10-06T10:37:24.369Z,23.31
2022-10-06T10:39:59.219Z,23.07
2022-10-06T10:42:39.760Z,22.55
2022-10-06T10:45:17.723Z,22.23
2022-10-06T10:47:48.510Z,22.35
2022-10-06T10:50:27.925Z,22.05
2022-10-06T10:53:07.364Z,21.94
2022-10-06T10:55:48.000Z,21.66
2022-10-06T10:58:37.473Z,21.73
2022-10-06T11:01:27.959Z,21.64
2022-10-06T11:03:57.001Z,21.29
2022-10-06T11:06:55.123Z,21.08
2022-10-06T11:09:51.171Z,20.70
2022-10-06T11:12:23.963Z,20.50
2022-10-06T11:15:03.547Z,20.19
2022-10-06T11:17:44.232Z,20.01
2022-10-06T11:20:23.985Z,19.79
2022-10-06T11:22:58.852Z,19.86
2022-10-06T11:25:56.695Z,20.06
2022-10-06T11:28:32.153Z,19.93
2022-10-06T11:31:06.212Z,19.96
2022-10-06T11:33:42.959Z,20.21
2022-10-06T11:36:21.657Z,20.22
2022-10-06T11:38:58.452Z,20.44
2022-10-06T11:41:39.425Z,20.67
2022-10-06T11:44:39.489Z,20.91
2022-10-06T11:47:28.176Z,21.08
2022-10-06T11:50:02.745Z,21.06
2022-10-06T11:52:30.443Z,21.06
2022-10-06T11:55:20.778Z,20.98
2022-10-06T11:58:29.833Z,21.38
2022-10-06T12:00:55.897Z,21.45
2022-10-06T12:03:31.181Z,21.71
2022-10-06T12:05:59.009Z,21.80
2022-10-06T12:08:37.064Z,21.76
2022-10-06T12:11:25.006Z,21.68
2022-10-06T12:19:42.231Z,21.16
2022-10-06T12:22:26.157Z,21.20
2022-10-06T12:25:37.574Z,21.24
2022-10-06T12:28:32.689Z,21.35
2022-10-06T12:31:21.934Z,21.45
2022-10-06T12:33:50.551Z,21.74
2022-10-06T12:36:28.827Z,21.95
2022-10-06T12:39:05.195Z,22.17
2022-10-06T12:42:01.656Z,22.16
2022-10-06T12:44:40.542Z,22.03
2022-10-06T12:47:34.853Z,21.71
2022-10-06T12:50:25.542Z,21.55
2022-10-06T12:53:05.852Z,21.50
2022-10-06T12:55:51.604Z,21.65
2022-10-06T12:58:20.990Z,21.10
2022-10-06T13:00:49.307Z,21.05
2022-10-06T13:03:24.331Z,20.93
2022-10-06T13:05:56.523Z,20.74
2022-10-06T13:08:30.033Z,20.76
2022-10-06T13:11:16.115Z,20.59
2022-10-06T13:13:48.270Z,20.52
2022-10-06T13:16:21.800Z,20.23
2022-10-06T13:18:54.276Z,20.07
2022-10-06T13:21:23.207Z,20.02
2022-10-06T13:23:52.333Z,20.06
2022-10-06T13:26:30.256Z,20.00
2022-10-06T13:28:59.564Z,19.99
2022-10-06T13:31:32.452Z,19.91
2022-10-06T13:34:00.429Z,20.04
2022-10-06T13:36:30.128Z,19.99
2022-10-06T13:38:58.395Z,19.82
2022-10-06T13:41:34.757Z,19.97
2022-10-06T13:44:06.071Z,20.04
2022-10-06T13:46:42.447Z,20.19
2022-10-06T13:49:26.302Z,20.18
2022-10-06T13:51:56.930Z,20.11
2022-10-06T13:54:33.028Z,20.20
2022-10-06T13:57:01.121Z,19.93
2022-10-06T13:59:37.265Z,19.94
2022-10-06T14:02:24.364Z,20.00
2022-10-06T14:05:26.519Z,19.74
2022-10-06T14:08:24.436Z,19.31
2022-10-06T14:10:57.383Z,18.92
2022-10-06T14:13:41.513Z,18.61
2022-10-06T14:16:18.349Z,18.39
2022-10-06T14:21:41.974Z,18.10
2022-10-06T14:24:15.948Z,17.94
2022-10-06T14:26:50.864Z,17.78
2022-10-06T14:29:20.181Z,17.60
2022-10-06T14:31:48.516Z,17.58
2022-10-06T14:34:18.596Z,17.59
2022-10-06T14:36:51.471Z,17.65
2022-10-06T14:39:20.252Z,17.60
2022-10-06T14:41:48.394Z,17.51
2022-10-06T14:44:16.375Z,17.64
2022-10-06T14:46:47.720Z,17.67
2022-10-06T14:49:16.430Z,17.75
2022-10-06T14:51:45.191Z,17.71
2022-10-06T14:54:13.703Z,17.82
2022-10-06T14:56:42.459Z,17.72
2022-10-06T14:59:16.742Z,17.69
2022-10-06T15:01:45.984Z,17.73
2022-10-06T15:04:20.020Z,17.73
2022-10-06T15:07:07.314Z,17.71
2022-10-06T15:09:35.790Z,17.56
2022-10-06T15:12:04.592Z,17.49
2022-10-06T15:14:35.003Z,17.45
2022-10-06T15:17:03.461Z,17.38
2022-10-06T15:19:31.415Z,17.41
2022-10-06T15:21:59.118Z,17.23
2022-10-06T15:24:27.117Z,17.11
2022-10-06T15:27:13.955Z,17.13
2022-10-06T15:29:42.408Z,16.95
2022-10-06T15:32:10.307Z,16.91
2022-10-06T15:34:38.161Z,16.78
2022-10-06T15:37:06.986Z,16.76
2022-10-06T15:39:38.504Z,16.64
2022-10-06T15:42:08.023Z,16.46
2022-10-06T15:44:36.393Z,16.27
2022-10-06T15:47:07.895Z,16.26
2022-10-06T15:49:40.562Z,16.20
2022-10-06T15:52:11.394Z,16.22
2022-10-06T15:54:41.291Z,16.10
2022-10-06T15:57:15.038Z,15.91
2022-10-06T15:59:45.883Z,15.94
2022-10-06T16:02:16.860Z,15.89
2022-10-06T16:05:09.288Z,15.77
2022-10-06T16:07:37.263Z,15.54
2022-10-06T16:10:05.322Z,15.38
2022-10-06T16:12:33.457Z,15.38
2022-10-06T16:15:01.471Z,15.27
2022-10-06T16:17:29.491Z,15.21
2022-10-06T16:19:57.148Z,15.05
2022-10-06T16:22:25.037Z,15.00
2022-10-06T16:24:53.484Z,15.00
2022-10-06T16:27:21.208Z,14.87
2022-10-06T16:29:49.056Z,14.95
2022-10-06T16:32:17.304Z,14.84
2022-10-06T16:34:50.357Z,14.78
2022-10-06T16:37:18.408Z,14.76
2022-10-06T16:39:46.159Z,14.70
2022-10-06T16:42:13.866Z,14.67
2022-10-06T16:44:41.798Z,14.57
2022-10-06T16:47:09.684Z,14.44
2022-10-06T16:49:37.411Z,14.40
2022-10-06T16:52:05.407Z,14.37
2022-10-06T16:54:33.067Z,14.29
2022-10-06T16:57:06.585Z,14.23
2022-10-06T16:59:34.506Z,14.10
2022-10-06T17:02:02.251Z,14.07
2022-10-06T17:04:30.144Z,14.01
2022-10-06T17:06:58.397Z,13.99
2022-10-06T17:09:28.747Z,13.99
2022-10-06T17:12:02.617Z,13.95
2022-10-06T17:14:32.276Z,14.00
2022-10-06T17:17:01.595Z,13.90
2022-10-06T17:19:30.451Z,13.74
2022-10-06T17:21:59.866Z,13.59
2022-10-06T17:24:29.605Z,13.62
2022-10-06T17:26:59.136Z,13.44
2022-10-06T17:29:27.253Z,13.34
2022-10-06T17:32:00.156Z,13.13
2022-10-06T17:34:33.412Z,13.10
2022-10-06T17:37:02.736Z,12.93
2022-10-06T17:39:31.132Z,12.76
2022-10-06T17:41:59.270Z,12.62
2022-10-06T17:44:28.605Z,12.49
2022-10-06T17:46:58.836Z,12.31
2022-10-06T17:49:28.657Z,12.26
2022-10-06T17:51:56.736Z,12.12
2022-10-06T17:54:26.897Z,12.08
2022-10-06T17:56:57.174Z,11.95
2022-10-06T17:59:31.648Z,11.81
2022-10-06T18:02:02.598Z,11.70
2022-10-06T18:04:32.152Z,11.63
2022-10-06T18:07:00.433Z,11.51
2022-10-06T18:09:28.369Z,11.39
2022-10-06T18:11:57.693Z,11.26
2022-10-06T18:14:28.005Z,11.24
2022-10-06T18:16:58.601Z,11.12
2022-10-06T18:19:34.374Z,11.02
2022-10-06T18:22:08.007Z,10.97
2022-10-06T18:24:35.770Z,10.94
2022-10-06T18:27:05.909Z,10.82
2022-10-06T18:29:35.781Z,10.76
2022-10-06T18:32:58.981Z,10.64
2022-10-06T18:37:41.455Z,10.40
2022-10-06T18:40:11.257Z,10.35
2022-10-06T18:42:39.548Z,10.32
2022-10-06T18:45:26.932Z,10.26
2022-10-06T18:48:13.379Z,10.23
2022-10-06T18:50:41.493Z,10.19
2022-10-06T18:53:09.430Z,10.10
2022-10-06T18:55:37.087Z,10.06
2022-10-06T18:58:05.257Z,9.96
2022-10-06T19:00:33.441Z,9.98
2022-10-06T19:03:01.160Z,9.95
2022-10-06T19:05:29.000Z,9.88
2022-10-06T19:07:57.093Z,9.74
2022-10-06T19:10:24.764Z,9.66
2022-10-06T19:12:52.514Z,9.73
2022-10-06T19:15:21.475Z,9.56
2022-10-06T19:17:50.327Z,9.54
2022-10-06T19:20:18.708Z,9.52
2022-10-06T19:22:47.850Z,9.45
2022-10-06T19:25:19.208Z,9.46
2022-10-06T19:27:51.128Z,9.36
2022-10-06T19:30:19.232Z,9.28
2022-10-06T19:32:48.668Z,9.25
2022-10-06T19:35:19.369Z,9.16
2022-10-06T19:37:47.362Z,9.16
2022-10-06T19:40:15.140Z,9.08
2022-10-06T19:42:49.447Z,9.03
2022-10-06T19:45:19.644Z,9.00
2022-10-06T19:47:48.006Z,8.97
2022-10-06T19:50:17.294Z,8.85
2022-10-06T19:52:45.619Z,8.91
2022-10-06T19:55:13.474Z,9.03
2022-10-06T19:57:41.669Z,8.84
2022-10-06T20:00:10.704Z,8.80
2022-10-06T20:02:43.914Z,8.77
2022-10-06T20:05:16.992Z,8.76
2022-10-06T20:07:46.943Z,8.67
2022-10-06T20:10:15.663Z,8.65
2022-10-06T20:12:43.550Z,8.62
2022-10-06T20:15:12.752Z,8.55
2022-10-06T20:17:42.438Z,8.54
2022-10-06T20:20:10.828Z,8.48
2022-10-06T20:22:38.587Z,8.46
2022-10-06T20:25:07.175Z,8.35
2022-10-06T20:27:35.104Z,8.30
2022-10-06T20:30:03.841Z,8.36
2022-10-06T20:32:31.716Z,8.34
2022-10-06T20:34:59.414Z,8.28
2022-10-06T20:37:27.456Z,8.24
2022-10-06T20:40:14.111Z,8.17
2022-10-06T20:42:44.827Z,8.08
2022-10-06T20:45:12.970Z,8.05
2022-10-06T20:47:41.069Z,8.07
2022-10-06T20:50:09.689Z,8.14
2022-10-06T20:52:38.760Z,8.02
2022-10-06T20:55:07.570Z,7.93
2022-10-06T20:57:35.511Z,7.94
2022-10-06T21:00:03.358Z,7.96
2022-10-06T21:02:32.153Z,7.91
2022-10-06T21:05:01.578Z,7.87
2022-10-06T21:07:29.424Z,7.87
2022-10-06T21:09:57.476Z,7.75
2022-10-06T21:12:25.313Z,7.67
2022-10-06T21:14:53.111Z,7.60
2022-10-06T21:17:21.030Z,7.64
2022-10-06T21:19:48.949Z,7.58
2022-10-06T21:22:17.428Z,7.54
2022-10-06T21:24:45.465Z,7.49
2022-10-06T21:27:13.270Z,7.48
2022-10-06T21:29:41.037Z,7.41
2022-10-06T21:32:10.086Z,7.39
2022-10-06T21:34:40.308Z,7.32
2022-10-06T21:37:08.224Z,7.27
2022-10-06T21:39:36.147Z,7.21
2022-10-06T21:42:04.265Z,7.20
2022-10-06T21:44:32.075Z,7.15
2022-10-06T21:47:02.747Z,7.09
2022-10-06T21:49:30.689Z,7.05
2022-10-06T21:52:03.615Z,7.07
2022-10-06T21:54:31.889Z,7.01
2022-10-06T21:56:59.910Z,7.09
2022-10-06T21:59:27.682Z,7.00
2022-10-06T22:01:56.811Z,6.99
2022-10-06T22:04:24.732Z,6.87
2022-10-06T22:06:52.735Z,6.87
2022-10-06T22:09:21.456Z,6.81
2022-10-06T22:11:49.805Z,6.80
2022-10-06T22:14:19.093Z,6.81
2022-10-06T22:16:48.252Z,6.77
2022-10-06T22:19:18.055Z,6.79
2022-10-06T22:21:48.607Z,6.77
2022-10-06T22:24:19.540Z,6.78
2022-10-06T22:26:48.617Z,6.69
2022-10-06T22:29:17.945Z,6.64
2022-10-06T22:31:47.853Z,6.60
2022-10-06T22:34:18.569Z,6.59
2022-10-06T22:36:46.800Z,6.63
2022-10-06T22:39:14.670Z,6.51
2022-10-06T22:41:42.601Z,6.45
2022-10-06T22:44:10.605Z,6.42
2022-10-06T22:46:38.990Z,6.40
2022-10-06T22:49:07.226Z,6.36
2022-10-06T22:51:35.795Z,6.32
2022-10-06T22:54:04.165Z,6.35
2022-10-06T22:56:33.895Z,6.36
2022-10-06T22:59:02.070Z,6.27
2022-10-06T23:01:30.410Z,6.22
2022-10-06T23:03:59.534Z,6.15
2022-10-06T23:06:31.182Z,6.27
2022-10-06T23:08:59.881Z,6.21
2022-10-06T23:11:28.252Z,6.13
2022-10-06T23:13:56.290Z,6.14
2022-10-06T23:16:24.165Z,6.14
2022-10-06T23:18:52.278Z,6.15
2022-10-06T23:21:24.075Z,6.09
2022-10-06T23:23:54.620Z,6.13
2022-10-06T23:26:24.177Z,6.11
2022-10-06T23:28:58.298Z,6.05
2022-10-06T23:31:27.728Z,6.02
2022-10-06T23:33:56.293Z,5.94
2022-10-06T23:36:24.293Z,5.96
2022-10-06T23:38:52.578Z,5.96
2022-10-06T23:41:20.575Z,5.85
2022-10-06T23:43:48.695Z,5.85
2022-10-06T23:46:17.028Z,5.83
2022-10-06T23:48:44.904Z,5.84
2022-10-06T23:51:15.472Z,5.77
2022-10-06T23:53:44.444Z,5.78
2022-10-06T23:56:12.974Z,5.74
2022-10-06T23:58:42.585Z,5.69
